sensor_id;sensor_type;location;lat;lon;timestamp;P1;durP1;ratioP1;P2;durP2;ratioP2
3036;SDS011;1528;52.550;13.408;2024-01-07T00:01:32;12.57;;;11.67;;
3036;SDS011;1528;52.550;13.408;2024-01-07T00:04:19;11.90;;;11.20;;
3036;SDS011;1528;52.550;13.408;2024-01-07T00:07:05;12.27;;;11.27;;
3036;SDS011;1528;52.550;13.408;2024-01-07T00:09:50;13.10;;;12.07;;
3036;SDS011;1528;52.550;13.408;2024-01-07T00:12:36;13.57;;;12.50;;
3036;SDS011;1528;52.550;13.408;2024-01-07T00:15:22;14.13;;;13.23;;
3036;SDS011;1528;52.550;13.408;2024-01-07T00:18:10;13.80;;;12.83;;
3036;SDS011;1528;52.550;13.408;2024-01-07T00:20:58;12.80;;;11.90;;
3036;SDS011;1528;52.550;13.408;2024-01-07T00:23:43;13.20;;;12.17;;
3036;SDS011;1528;52.550;13.408;2024-01-07T00:26:29;12.32;;;11.32;;
3036;SDS011;1528;52.550;13.408;2024-01-07T00:29:14;12.30;;;11.50;;
3036;SDS011;1528;52.550;13.408;2024-01-07T00:32:00;12.50;;;11.70;;
3036;SDS011;1528;52.550;13.408;2024-01-07T00:34:46;11.77;;;11.00;;
3036;SDS011;1528;52.550;13.408;2024-01-07T00:37:33;12.10;;;11.30;;
3036;SDS011;1528;52.550;13.408;2024-01-07T00:40:18;11.82;;;11.13;;
3036;SDS011;1528;52.550;13.408;2024-01-07T00:43:04;14.27;;;13.30;;
3036;SDS011;1528;52.550;13.408;2024-01-07T00:45:50;13.73;;;12.93;;
3036;SDS011;1528;52.550;13.408;2024-01-07T00:48:36;12.37;;;11.70;;
3036;SDS011;1528;52.550;13.408;2024-01-07T00:51:21;11.63;;;10.87;;
3036;SDS011;1528;52.550;13.408;2024-01-07T00:54:08;12.17;;;11.10;;
3036;SDS011;1528;52.550;13.408;2024-01-07T00:56:54;11.30;;;10.60;;
3036;SDS011;1528;52.550;13.408;2024-01-07T00:59:39;13.03;;;12.23;;
3036;SDS011;1528;52.550;13.408;2024-01-07T01:02:25;35.97;;;32.77;;
3036;SDS011;1528;52.550;13.408;2024-01-07T01:05:11;14.73;;;13.73;;
3036;SDS011;1528;52.550;13.408;2024-01-07T01:07:56;10.80;;;10.20;;
3036;SDS011;1528;52.550;13.408;2024-01-07T01:10:43;11.75;;;11.02;;
3036;SDS011;1528;52.550;13.408;2024-01-07T01:13:29;10.50;;;9.70;;
3036;SDS011;1528;52.550;13.408;2024-01-07T01:16:15;10.30;;;9.70;;
3036;SDS011;1528;52.550;13.408;2024-01-07T01:19:00;10.48;;;9.82;;
3036;SDS011;1528;52.550;13.408;2024-01-07T01:21:46;10.68;;;9.98;;
3036;SDS011;1528;52.550;13.408;2024-01-07T01:24:32;11.90;;;11.20;;
3036;SDS011;1528;52.550;13.408;2024-01-07T01:27:19;11.02;;;10.38;;
3036;SDS011;1528;52.550;13.408;2024-01-07T01:30:04;10.80;;;10.10;;
3036;SDS011;1528;52.550;13.408;2024-01-07T01:32:51;11.33;;;10.40;;
3036;SDS011;1528;52.550;13.408;2024-01-07T01:35:37;10.80;;;10.10;;
3036;SDS011;1528;52.550;13.408;2024-01-07T01:38:23;11.60;;;10.80;;
3036;SDS011;1528;52.550;13.408;2024-01-07T01:41:09;12.07;;;11.38;;
3036;SDS011;1528;52.550;13.408;2024-01-07T01:43:57;12.27;;;11.57;;
3036;SDS011;1528;52.550;13.408;2024-01-07T01:46:44;13.27;;;12.40;;
3036;SDS011;1528;52.550;13.408;2024-01-07T01:49:30;12.07;;;11.37;;
3036;SDS011;1528;52.550;13.408;2024-01-07T01:52:15;11.35;;;10.52;;
3036;SDS011;1528;52.550;13.408;2024-01-07T01:55:01;11.70;;;10.90;;
3036;SDS011;1528;52.550;13.408;2024-01-07T01:57:47;12.70;;;12.00;;
3036;SDS011;1528;52.550;13.408;2024-01-07T02:00:34;10.60;;;9.90;;
3036;SDS011;1528;52.550;13.408;2024-01-07T02:03:20;11.55;;;10.85;;
3036;SDS011;1528;52.550;13.408;2024-01-07T02:06:06;12.52;;;11.90;;
3036;SDS011;1528;52.550;13.408;2024-01-07T02:08:51;12.95;;;12.15;;
3036;SDS011;1528;52.550;13.408;2024-01-07T02:11:37;12.13;;;11.27;;
3036;SDS011;1528;52.550;13.408;2024-01-07T02:14:23;12.85;;;12.15;;
3036;SDS011;1528;52.550;13.408;2024-01-07T02:17:10;13.93;;;13.13;;
3036;SDS011;1528;52.550;13.408;2024-01-07T02:19:55;14.10;;;13.30;;
3036;SDS011;1528;52.550;13.408;2024-01-07T02:22:41;12.02;;;11.43;;
3036;SDS011;1528;52.550;13.408;2024-01-07T02:25:28;11.55;;;10.88;;
3036;SDS011;1528;52.550;13.408;2024-01-07T02:28:13;13.70;;;13.10;;
3036;SDS011;1528;52.550;13.408;2024-01-07T02:30:58;13.15;;;12.55;;
3036;SDS011;1528;52.550;13.408;2024-01-07T02:33:44;12.65;;;11.95;;
3036;SDS011;1528;52.550;13.408;2024-01-07T02:36:30;13.73;;;13.02;;
3036;SDS011;1528;52.550;13.408;2024-01-07T02:39:15;11.88;;;11.18;;
3036;SDS011;1528;52.550;13.408;2024-01-07T02:42:02;13.07;;;12.38;;
3036;SDS011;1528;52.550;13.408;2024-01-07T02:44:48;11.68;;;10.98;;
3036;SDS011;1528;52.550;13.408;2024-01-07T02:47:34;12.73;;;11.98;;
3036;SDS011;1528;52.550;13.408;2024-01-07T02:50:19;12.82;;;12.32;;
3036;SDS011;1528;52.550;13.408;2024-01-07T02:53:05;11.23;;;10.73;;
3036;SDS011;1528;52.550;13.408;2024-01-07T02:55:52;14.90;;;14.10;;
3036;SDS011;1528;52.550;13.408;2024-01-07T02:58:39;12.55;;;11.85;;
3036;SDS011;1528;52.550;13.408;2024-01-07T03:01:24;13.18;;;12.57;;
3036;SDS011;1528;52.550;13.408;2024-01-07T03:04:10;11.40;;;10.85;;
3036;SDS011;1528;52.550;13.408;2024-01-07T03:06:57;11.45;;;10.85;;
3036;SDS011;1528;52.550;13.408;2024-01-07T03:09:42;12.50;;;12.00;;
3036;SDS011;1528;52.550;13.408;2024-01-07T03:12:28;13.87;;;13.27;;
3036;SDS011;1528;52.550;13.408;2024-01-07T03:15:15;11.30;;;10.80;;
3036;SDS011;1528;52.550;13.408;2024-01-07T03:18:00;14.20;;;13.38;;
3036;SDS011;1528;52.550;13.408;2024-01-07T03:20:46;11.48;;;10.88;;
3036;SDS011;1528;52.550;13.408;2024-01-07T03:23:31;11.27;;;10.57;;
3036;SDS011;1528;52.550;13.408;2024-01-07T03:26:17;11.65;;;11.02;;
3036;SDS011;1528;52.550;13.408;2024-01-07T03:29:04;10.70;;;10.20;;
3036;SDS011;1528;52.550;13.408;2024-01-07T03:31:51;9.55;;;9.05;;
3036;SDS011;1528;52.550;13.408;2024-01-07T03:34:38;10.00;;;9.15;;
3036;SDS011;1528;52.550;13.408;2024-01-07T03:37:24;9.15;;;8.65;;
3036;SDS011;1528;52.550;13.408;2024-01-07T03:40:10;10.57;;;9.88;;
3036;SDS011;1528;52.550;13.408;2024-01-07T03:42:56;9.80;;;9.30;;
3036;SDS011;1528;52.550;13.408;2024-01-07T03:45:42;10.32;;;8.98;;
3036;SDS011;1528;52.550;13.408;2024-01-07T03:48:29;10.50;;;9.70;;
3036;SDS011;1528;52.550;13.408;2024-01-07T03:51:14;10.70;;;9.88;;
3036;SDS011;1528;52.550;13.408;2024-01-07T03:54:00;10.52;;;9.93;;
3036;SDS011;1528;52.550;13.408;2024-01-07T03:56:46;10.40;;;9.80;;
3036;SDS011;1528;52.550;13.408;2024-01-07T03:59:31;12.63;;;11.85;;
3036;SDS011;1528;52.550;13.408;2024-01-07T04:02:17;14.40;;;13.80;;
3036;SDS011;1528;52.550;13.408;2024-01-07T04:05:05;11.50;;;11.00;;
3036;SDS011;1528;52.550;13.408;2024-01-07T04:07:50;9.75;;;9.25;;
3036;SDS011;1528;52.550;13.408;2024-01-07T04:10:36;11.55;;;10.95;;
3036;SDS011;1528;52.550;13.408;2024-01-07T04:13:22;9.98;;;9.38;;
3036;SDS011;1528;52.550;13.408;2024-01-07T04:16:15;10.50;;;9.95;;
3036;SDS011;1528;52.550;13.408;2024-01-07T04:19:01;10.35;;;9.85;;
3036;SDS011;1528;52.550;13.408;2024-01-07T04:21:47;9.60;;;9.20;;
3036;SDS011;1528;52.550;13.408;2024-01-07T04:24:33;10.35;;;9.65;;
3036;SDS011;1528;52.550;13.408;2024-01-07T04:27:18;10.30;;;9.70;;
3036;SDS011;1528;52.550;13.408;2024-01-07T04:30:04;10.30;;;9.60;;
3036;SDS011;1528;52.550;13.408;2024-01-07T04:32:50;10.35;;;9.75;;
3036;SDS011;1528;52.550;13.408;2024-01-07T04:35:36;11.02;;;10.35;;
3036;SDS011;1528;52.550;13.408;2024-01-07T04:38:23;11.43;;;10.73;;
3036;SDS011;1528;52.550;13.408;2024-01-07T04:41:09;11.05;;;10.35;;
3036;SDS011;1528;52.550;13.408;2024-01-07T04:43:54;10.65;;;10.05;;
3036;SDS011;1528;52.550;13.408;2024-01-07T04:46:40;11.30;;;10.70;;
3036;SDS011;1528;52.550;13.408;2024-01-07T04:49:26;10.65;;;10.15;;
3036;SDS011;1528;52.550;13.408;2024-01-07T04:52:11;11.10;;;10.57;;
3036;SDS011;1528;52.550;13.408;2024-01-07T04:54:58;9.80;;;9.20;;
3036;SDS011;1528;52.550;13.408;2024-01-07T04:57:43;10.57;;;9.98;;
3036;SDS011;1528;52.550;13.408;2024-01-07T05:00:29;9.70;;;9.27;;
3036;SDS011;1528;52.550;13.408;2024-01-07T05:03:15;11.40;;;10.70;;
3036;SDS011;1528;52.550;13.408;2024-01-07T05:06:00;10.90;;;10.30;;
3036;SDS011;1528;52.550;13.408;2024-01-07T05:08:46;10.75;;;10.15;;
3036;SDS011;1528;52.550;13.408;2024-01-07T05:11:38;11.50;;;10.88;;
3036;SDS011;1528;52.550;13.408;2024-01-07T05:14:24;10.60;;;10.10;;
3036;SDS011;1528;52.550;13.408;2024-01-07T05:17:09;11.38;;;10.77;;
3036;SDS011;1528;52.550;13.408;2024-01-07T05:19:55;14.32;;;13.13;;
3036;SDS011;1528;52.550;13.408;2024-01-07T05:22:41;10.00;;;9.40;;
3036;SDS011;1528;52.550;13.408;2024-01-07T05:25:26;12.02;;;11.32;;
3036;SDS011;1528;52.550;13.408;2024-01-07T05:28:13;10.80;;;10.18;;
3036;SDS011;1528;52.550;13.408;2024-01-07T05:31:02;11.18;;;10.55;;
3036;SDS011;1528;52.550;13.408;2024-01-07T05:33:48;11.32;;;10.73;;
3036;SDS011;1528;52.550;13.408;2024-01-07T05:36:34;11.25;;;10.70;;
3036;SDS011;1528;52.550;13.408;2024-01-07T05:39:19;11.32;;;10.73;;
3036;SDS011;1528;52.550;13.408;2024-01-07T05:42:05;10.27;;;9.77;;
3036;SDS011;1528;52.550;13.408;2024-01-07T05:44:51;10.33;;;9.83;;
3036;SDS011;1528;52.550;13.408;2024-01-07T05:47:37;11.20;;;10.40;;
3036;SDS011;1528;52.550;13.408;2024-01-07T05:50:24;11.93;;;11.35;;
3036;SDS011;1528;52.550;13.408;2024-01-07T05:53:09;11.00;;;10.40;;
3036;SDS011;1528;52.550;13.408;2024-01-07T05:55:55;10.10;;;9.50;;
3036;SDS011;1528;52.550;13.408;2024-01-07T05:58:41;10.70;;;10.20;;
3036;SDS011;1528;52.550;13.408;2024-01-07T06:01:28;9.50;;;8.80;;
3036;SDS011;1528;52.550;13.408;2024-01-07T06:04:13;10.55;;;9.77;;
3036;SDS011;1528;52.550;13.408;2024-01-07T06:06:59;13.10;;;12.40;;
3036;SDS011;1528;52.550;13.408;2024-01-07T06:09:44;11.43;;;10.73;;
3036;SDS011;1528;52.550;13.408;2024-01-07T06:12:30;12.73;;;12.02;;
3036;SDS011;1528;52.550;13.408;2024-01-07T06:15:16;10.83;;;10.33;;
3036;SDS011;1528;52.550;13.408;2024-01-07T06:18:03;14.57;;;13.77;;
3036;SDS011;1528;52.550;13.408;2024-01-07T06:20:49;10.60;;;9.90;;
3036;SDS011;1528;52.550;13.408;2024-01-07T06:23:35;12.10;;;11.20;;
3036;SDS011;1528;52.550;13.408;2024-01-07T06:26:21;10.48;;;9.88;;
3036;SDS011;1528;52.550;13.408;2024-01-07T06:29:07;9.87;;;9.17;;
3036;SDS011;1528;52.550;13.408;2024-01-07T06:31:53;11.18;;;10.57;;
3036;SDS011;1528;52.550;13.408;2024-01-07T06:34:40;11.63;;;11.02;;
3036;SDS011;1528;52.550;13.408;2024-01-07T06:37:26;11.35;;;10.65;;
3036;SDS011;1528;52.550;13.408;2024-01-07T06:40:12;11.65;;;10.88;;
3036;SDS011;1528;52.550;13.408;2024-01-07T06:42:58;12.05;;;11.32;;
3036;SDS011;1528;52.550;13.408;2024-01-07T06:45:44;11.10;;;10.50;;
3036;SDS011;1528;52.550;13.408;2024-01-07T06:48:29;11.07;;;10.38;;
3036;SDS011;1528;52.550;13.408;2024-01-07T06:51:16;12.00;;;11.20;;
3036;SDS011;1528;52.550;13.408;2024-01-07T06:54:01;11.93;;;11.33;;
3036;SDS011;1528;52.550;13.408;2024-01-07T06:56:47;14.27;;;13.57;;
3036;SDS011;1528;52.550;13.408;2024-01-07T06:59:32;12.60;;;11.90;;
3036;SDS011;1528;52.550;13.408;2024-01-07T07:02:19;14.00;;;13.20;;
3036;SDS011;1528;52.550;13.408;2024-01-07T07:05:05;12.67;;;12.00;;
3036;SDS011;1528;52.550;13.408;2024-01-07T07:07:53;14.47;;;13.73;;
3036;SDS011;1528;52.550;13.408;2024-01-07T07:10:39;11.47;;;10.87;;
3036;SDS011;1528;52.550;13.408;2024-01-07T07:13:24;14.45;;;13.75;;
3036;SDS011;1528;52.550;13.408;2024-01-07T07:16:10;12.88;;;12.10;;
3036;SDS011;1528;52.550;13.408;2024-01-07T07:18:56;10.55;;;9.95;;
3036;SDS011;1528;52.550;13.408;2024-01-07T07:21:43;13.98;;;13.20;;
3036;SDS011;1528;52.550;13.408;2024-01-07T07:24:30;12.00;;;11.30;;
3036;SDS011;1528;52.550;13.408;2024-01-07T07:27:15;14.27;;;13.57;;
3036;SDS011;1528;52.550;13.408;2024-01-07T07:30:01;12.82;;;12.15;;
3036;SDS011;1528;52.550;13.408;2024-01-07T07:32:46;12.57;;;11.87;;
3036;SDS011;1528;52.550;13.408;2024-01-07T07:35:32;11.77;;;11.07;;
3036;SDS011;1528;52.550;13.408;2024-01-07T07:38:18;14.70;;;13.80;;
3036;SDS011;1528;52.550;13.408;2024-01-07T07:41:05;12.33;;;11.63;;
3036;SDS011;1528;52.550;13.408;2024-01-07T07:43:51;13.70;;;13.00;;
3036;SDS011;1528;52.550;13.408;2024-01-07T07:46:36;14.23;;;13.53;;
3036;SDS011;1528;52.550;13.408;2024-01-07T07:49:22;11.32;;;10.73;;
3036;SDS011;1528;52.550;13.408;2024-01-07T07:52:08;13.60;;;12.90;;
3036;SDS011;1528;52.550;13.408;2024-01-07T07:54:56;11.40;;;10.80;;
3036;SDS011;1528;52.550;13.408;2024-01-07T07:57:57;12.77;;;12.17;;
3036;SDS011;1528;52.550;13.408;2024-01-07T08:00:43;15.45;;;14.63;;
3036;SDS011;1528;52.550;13.408;2024-01-07T08:03:28;11.35;;;10.75;;
3036;SDS011;1528;52.550;13.408;2024-01-07T08:06:14;12.10;;;11.43;;
3036;SDS011;1528;52.550;13.408;2024-01-07T08:09:00;11.23;;;10.73;;
3036;SDS011;1528;52.550;13.408;2024-01-07T08:11:46;14.30;;;13.50;;
3036;SDS011;1528;52.550;13.408;2024-01-07T08:14:33;13.70;;;12.80;;
3036;SDS011;1528;52.550;13.408;2024-01-07T08:17:19;15.63;;;14.83;;
3036;SDS011;1528;52.550;13.408;2024-01-07T08:20:05;12.80;;;12.13;;
3036;SDS011;1528;52.550;13.408;2024-01-07T08:22:52;14.53;;;13.77;;
3036;SDS011;1528;52.550;13.408;2024-01-07T08:25:37;12.73;;;12.07;;
3036;SDS011;1528;52.550;13.408;2024-01-07T08:28:23;15.50;;;14.63;;
3036;SDS011;1528;52.550;13.408;2024-01-07T08:31:10;12.43;;;11.70;;
3036;SDS011;1528;52.550;13.408;2024-01-07T08:33:56;11.80;;;11.20;;
3036;SDS011;1528;52.550;13.408;2024-01-07T08:36:41;14.33;;;13.53;;
3036;SDS011;1528;52.550;13.408;2024-01-07T08:39:27;12.90;;;12.20;;
3036;SDS011;1528;52.550;13.408;2024-01-07T08:42:13;14.83;;;14.03;;
3036;SDS011;1528;52.550;13.408;2024-01-07T08:44:59;12.97;;;12.20;;
3036;SDS011;1528;52.550;13.408;2024-01-07T08:47:46;13.40;;;12.50;;
3036;SDS011;1528;52.550;13.408;2024-01-07T08:50:31;15.23;;;14.20;;
3036;SDS011;1528;52.550;13.408;2024-01-07T08:53:17;14.40;;;13.53;;
3036;SDS011;1528;52.550;13.408;2024-01-07T08:56:03;13.97;;;12.87;;
3036;SDS011;1528;52.550;13.408;2024-01-07T08:58:50;17.07;;;16.10;;
3036;SDS011;1528;52.550;13.408;2024-01-07T09:01:35;13.77;;;12.87;;
3036;SDS011;1528;52.550;13.408;2024-01-07T09:04:22;13.93;;;13.03;;
3036;SDS011;1528;52.550;13.408;2024-01-07T09:07:08;15.70;;;14.90;;
3036;SDS011;1528;52.550;13.408;2024-01-07T09:09:53;16.23;;;15.27;;
3036;SDS011;1528;52.550;13.408;2024-01-07T09:12:42;16.90;;;16.03;;
3036;SDS011;1528;52.550;13.408;2024-01-07T09:15:28;17.60;;;16.50;;
3036;SDS011;1528;52.550;13.408;2024-01-07T09:18:14;15.80;;;14.90;;
3036;SDS011;1528;52.550;13.408;2024-01-07T09:21:01;14.90;;;14.03;;
3036;SDS011;1528;52.550;13.408;2024-01-07T09:23:46;14.97;;;14.03;;
3036;SDS011;1528;52.550;13.408;2024-01-07T09:26:32;15.63;;;14.40;;
3036;SDS011;1528;52.550;13.408;2024-01-07T09:29:17;15.37;;;14.50;;
3036;SDS011;1528;52.550;13.408;2024-01-07T09:32:04;16.60;;;15.50;;
3036;SDS011;1528;52.550;13.408;2024-01-07T09:34:50;14.73;;;13.93;;
3036;SDS011;1528;52.550;13.408;2024-01-07T09:37:37;16.17;;;15.17;;
3036;SDS011;1528;52.550;13.408;2024-01-07T09:40:22;16.00;;;15.00;;
3036;SDS011;1528;52.550;13.408;2024-01-07T09:43:08;15.00;;;14.10;;
3036;SDS011;1528;52.550;13.408;2024-01-07T09:45:54;17.90;;;16.80;;
3036;SDS011;1528;52.550;13.408;2024-01-07T09:48:42;18.63;;;17.43;;
3036;SDS011;1528;52.550;13.408;2024-01-07T09:51:29;15.60;;;14.40;;
3036;SDS011;1528;52.550;13.408;2024-01-07T09:54:21;16.30;;;15.10;;
3036;SDS011;1528;52.550;13.408;2024-01-07T09:57:07;18.90;;;17.73;;
3036;SDS011;1528;52.550;13.408;2024-01-07T09:59:54;18.03;;;16.93;;
3036;SDS011;1528;52.550;13.408;2024-01-07T10:02:40;16.97;;;15.77;;
3036;SDS011;1528;52.550;13.408;2024-01-07T10:05:26;16.90;;;15.70;;
3036;SDS011;1528;52.550;13.408;2024-01-07T10:08:11;17.17;;;15.87;;
3036;SDS011;1528;52.550;13.408;2024-01-07T10:10:58;15.90;;;15.00;;
3036;SDS011;1528;52.550;13.408;2024-01-07T10:13:45;15.97;;;14.97;;
3036;SDS011;1528;52.550;13.408;2024-01-07T10:16:32;18.73;;;17.63;;
3036;SDS011;1528;52.550;13.408;2024-01-07T10:19:19;14.37;;;13.43;;
3036;SDS011;1528;52.550;13.408;2024-01-07T10:22:07;17.23;;;16.13;;
3036;SDS011;1528;52.550;13.408;2024-01-07T10:24:53;18.10;;;16.90;;
3036;SDS011;1528;52.550;13.408;2024-01-07T10:27:40;16.17;;;15.17;;
3036;SDS011;1528;52.550;13.408;2024-01-07T10:30:25;16.33;;;15.43;;
3036;SDS011;1528;52.550;13.408;2024-01-07T10:33:11;17.80;;;16.80;;
3036;SDS011;1528;52.550;13.408;2024-01-07T10:36:00;15.33;;;14.33;;
3036;SDS011;1528;52.550;13.408;2024-01-07T10:38:48;19.03;;;17.87;;
3036;SDS011;1528;52.550;13.408;2024-01-07T10:41:34;16.67;;;15.67;;
3036;SDS011;1528;52.550;13.408;2024-01-07T10:44:26;18.03;;;16.87;;
3036;SDS011;1528;52.550;13.408;2024-01-07T10:47:14;18.30;;;17.20;;
3036;SDS011;1528;52.550;13.408;2024-01-07T10:50:04;17.60;;;16.47;;
3036;SDS011;1528;52.550;13.408;2024-01-07T10:52:58;17.50;;;15.77;;
3036;SDS011;1528;52.550;13.408;2024-01-07T10:55:49;15.23;;;14.23;;
3036;SDS011;1528;52.550;13.408;2024-01-07T10:58:43;15.17;;;14.07;;
3036;SDS011;1528;52.550;13.408;2024-01-07T11:01:32;17.27;;;16.23;;
3036;SDS011;1528;52.550;13.408;2024-01-07T11:04:20;17.27;;;16.13;;
3036;SDS011;1528;52.550;13.408;2024-01-07T11:07:12;16.37;;;15.43;;
3036;SDS011;1528;52.550;13.408;2024-01-07T11:10:06;17.63;;;16.60;;
3036;SDS011;1528;52.550;13.408;2024-01-07T11:12:56;16.07;;;15.07;;
3036;SDS011;1528;52.550;13.408;2024-01-07T11:15:50;16.73;;;15.70;;
3036;SDS011;1528;52.550;13.408;2024-01-07T11:18:39;19.07;;;17.90;;
3036;SDS011;1528;52.550;13.408;2024-01-07T11:21:29;15.27;;;14.27;;
3036;SDS011;1528;52.550;13.408;2024-01-07T11:27:28;16.67;;;15.37;;
3036;SDS011;1528;52.550;13.408;2024-01-07T11:30:18;17.43;;;16.53;;
3036;SDS011;1528;52.550;13.408;2024-01-07T11:33:04;16.20;;;15.33;;
3036;SDS011;1528;52.550;13.408;2024-01-07T11:35:58;15.57;;;14.70;;
3036;SDS011;1528;52.550;13.408;2024-01-07T11:38:47;15.30;;;14.50;;
3036;SDS011;1528;52.550;13.408;2024-01-07T11:41:34;15.00;;;14.00;;
3036;SDS011;1528;52.550;13.408;2024-01-07T11:44:20;14.43;;;13.43;;
3036;SDS011;1528;52.550;13.408;2024-01-07T11:47:06;16.20;;;15.30;;
3036;SDS011;1528;52.550;13.408;2024-01-07T11:49:51;16.40;;;15.50;;
3036;SDS011;1528;52.550;13.408;2024-01-07T11:52:38;15.50;;;14.53;;
3036;SDS011;1528;52.550;13.408;2024-01-07T11:55:26;14.30;;;13.50;;
3036;SDS011;1528;52.550;13.408;2024-01-07T11:58:19;15.17;;;14.27;;
3036;SDS011;1528;52.550;13.408;2024-01-07T12:01:11;17.20;;;16.03;;
3036;SDS011;1528;52.550;13.408;2024-01-07T12:03:59;15.83;;;14.87;;
3036;SDS011;1528;52.550;13.408;2024-01-07T12:06:45;14.70;;;13.90;;
3036;SDS011;1528;52.550;13.408;2024-01-07T12:09:32;16.20;;;15.00;;
3036;SDS011;1528;52.550;13.408;2024-01-07T12:12:18;15.57;;;14.77;;
3036;SDS011;1528;52.550;13.408;2024-01-07T12:15:04;14.07;;;13.27;;
3036;SDS011;1528;52.550;13.408;2024-01-07T12:17:57;15.93;;;15.13;;
3036;SDS011;1528;52.550;13.408;2024-01-07T12:20:54;16.10;;;15.00;;
3036;SDS011;1528;52.550;13.408;2024-01-07T12:23:40;15.00;;;13.90;;
3036;SDS011;1528;52.550;13.408;2024-01-07T12:26:27;15.50;;;14.57;;
3036;SDS011;1528;52.550;13.408;2024-01-07T12:29:13;14.47;;;13.73;;
3036;SDS011;1528;52.550;13.408;2024-01-07T12:31:58;17.17;;;16.37;;
3036;SDS011;1528;52.550;13.408;2024-01-07T12:34:47;15.67;;;14.60;;
3036;SDS011;1528;52.550;13.408;2024-01-07T12:37:33;14.60;;;13.70;;
3036;SDS011;1528;52.550;13.408;2024-01-07T12:40:20;15.47;;;14.50;;
3036;SDS011;1528;52.550;13.408;2024-01-07T12:43:09;15.77;;;14.87;;
3036;SDS011;1528;52.550;13.408;2024-01-07T12:45:54;14.30;;;13.50;;
3036;SDS011;1528;52.550;13.408;2024-01-07T12:48:40;16.37;;;15.57;;
3036;SDS011;1528;52.550;13.408;2024-01-07T12:51:26;16.20;;;15.10;;
3036;SDS011;1528;52.550;13.408;2024-01-07T12:54:12;14.90;;;14.10;;
3036;SDS011;1528;52.550;13.408;2024-01-07T12:56:57;14.10;;;13.30;;
3036;SDS011;1528;52.550;13.408;2024-01-07T12:59:44;14.13;;;13.03;;
3036;SDS011;1528;52.550;13.408;2024-01-07T13:02:30;16.80;;;15.60;;
3036;SDS011;1528;52.550;13.408;2024-01-07T13:05:16;17.37;;;16.27;;
3036;SDS011;1528;52.550;13.408;2024-01-07T13:08:02;15.70;;;14.73;;
3036;SDS011;1528;52.550;13.408;2024-01-07T13:10:48;16.80;;;15.70;;
3036;SDS011;1528;52.550;13.408;2024-01-07T13:13:34;15.67;;;14.87;;
3036;SDS011;1528;52.550;13.408;2024-01-07T13:16:21;16.87;;;16.00;;
3036;SDS011;1528;52.550;13.408;2024-01-07T13:19:09;16.43;;;15.50;;
3036;SDS011;1528;52.550;13.408;2024-01-07T13:22:00;15.73;;;14.93;;
3036;SDS011;1528;52.550;13.408;2024-01-07T13:24:45;15.73;;;14.63;;
3036;SDS011;1528;52.550;13.408;2024-01-07T13:27:31;15.10;;;14.30;;
3036;SDS011;1528;52.550;13.408;2024-01-07T13:30:17;14.80;;;13.77;;
3036;SDS011;1528;52.550;13.408;2024-01-07T13:33:04;19.20;;;17.97;;
3036;SDS011;1528;52.550;13.408;2024-01-07T13:35:50;18.20;;;17.13;;
3036;SDS011;1528;52.550;13.408;2024-01-07T13:38:35;15.87;;;15.07;;
3036;SDS011;1528;52.550;13.408;2024-01-07T13:41:22;17.03;;;16.23;;
3036;SDS011;1528;52.550;13.408;2024-01-07T13:44:08;15.90;;;15.10;;
3036;SDS011;1528;52.550;13.408;2024-01-07T13:47:01;18.30;;;17.13;;
3036;SDS011;1528;52.550;13.408;2024-01-07T13:49:48;19.40;;;18.40;;
3036;SDS011;1528;52.550;13.408;2024-01-07T13:52:33;16.37;;;15.40;;
3036;SDS011;1528;52.550;13.408;2024-01-07T13:55:19;16.20;;;15.50;;
3036;SDS011;1528;52.550;13.408;2024-01-07T13:58:05;16.07;;;15.37;;
3036;SDS011;1528;52.550;13.408;2024-01-07T14:00:50;14.70;;;13.90;;
3036;SDS011;1528;52.550;13.408;2024-01-07T14:03:36;14.43;;;13.63;;
3036;SDS011;1528;52.550;13.408;2024-01-07T14:06:23;12.53;;;11.83;;
3036;SDS011;1528;52.550;13.408;2024-01-07T14:09:08;13.83;;;13.07;;
3036;SDS011;1528;52.550;13.408;2024-01-07T14:11:55;15.30;;;14.50;;
3036;SDS011;1528;52.550;13.408;2024-01-07T14:14:42;14.80;;;14.10;;
3036;SDS011;1528;52.550;13.408;2024-01-07T14:17:28;14.90;;;14.10;;
3036;SDS011;1528;52.550;13.408;2024-01-07T14:20:14;15.60;;;14.90;;
3036;SDS011;1528;52.550;13.408;2024-01-07T14:23:06;14.23;;;13.43;;
3036;SDS011;1528;52.550;13.408;2024-01-07T14:25:53;17.00;;;16.17;;
3036;SDS011;1528;52.550;13.408;2024-01-07T14:28:42;15.80;;;15.10;;
3036;SDS011;1528;52.550;13.408;2024-01-07T14:31:30;15.73;;;14.93;;
3036;SDS011;1528;52.550;13.408;2024-01-07T14:34:22;18.33;;;17.47;;
3036;SDS011;1528;52.550;13.408;2024-01-07T14:37:08;16.50;;;15.70;;
3036;SDS011;1528;52.550;13.408;2024-01-07T14:39:56;17.43;;;16.70;;
3036;SDS011;1528;52.550;13.408;2024-01-07T14:42:41;16.80;;;16.00;;
3036;SDS011;1528;52.550;13.408;2024-01-07T14:45:27;15.73;;;14.83;;
3036;SDS011;1528;52.550;13.408;2024-01-07T14:48:12;13.27;;;12.57;;
3036;SDS011;1528;52.550;13.408;2024-01-07T14:50:58;14.27;;;13.47;;
3036;SDS011;1528;52.550;13.408;2024-01-07T14:53:44;15.43;;;14.60;;
3036;SDS011;1528;52.550;13.408;2024-01-07T14:56:31;14.43;;;13.63;;
3036;SDS011;1528;52.550;13.408;2024-01-07T14:59:17;16.47;;;15.67;;
3036;SDS011;1528;52.550;13.408;2024-01-07T15:02:03;16.00;;;15.20;;
3036;SDS011;1528;52.550;13.408;2024-01-07T15:04:49;16.30;;;15.60;;
3036;SDS011;1528;52.550;13.408;2024-01-07T15:07:35;16.80;;;16.00;;
3036;SDS011;1528;52.550;13.408;2024-01-07T15:10:21;15.67;;;14.97;;
3036;SDS011;1528;52.550;13.408;2024-01-07T15:13:08;14.73;;;14.10;;
3036;SDS011;1528;52.550;13.408;2024-01-07T15:15:54;16.20;;;15.50;;
3036;SDS011;1528;52.550;13.408;2024-01-07T15:18:40;15.33;;;14.40;;
3036;SDS011;1528;52.550;13.408;2024-01-07T15:21:26;14.97;;;14.17;;
3036;SDS011;1528;52.550;13.408;2024-01-07T15:24:12;15.53;;;14.83;;
3036;SDS011;1528;52.550;13.408;2024-01-07T15:26:57;16.27;;;15.57;;
3036;SDS011;1528;52.550;13.408;2024-01-07T15:29:44;14.23;;;13.53;;
3036;SDS011;1528;52.550;13.408;2024-01-07T15:32:30;15.87;;;14.97;;
3036;SDS011;1528;52.550;13.408;2024-01-07T15:35:16;16.53;;;15.43;;
3036;SDS011;1528;52.550;13.408;2024-01-07T15:38:01;17.27;;;16.47;;
3036;SDS011;1528;52.550;13.408;2024-01-07T15:40:47;14.90;;;14.20;;
3036;SDS011;1528;52.550;13.408;2024-01-07T15:43:33;17.97;;;16.97;;
3036;SDS011;1528;52.550;13.408;2024-01-07T15:46:20;15.07;;;14.27;;
3036;SDS011;1528;52.550;13.408;2024-01-07T15:49:05;18.10;;;17.13;;
3036;SDS011;1528;52.550;13.408;2024-01-07T15:51:51;17.03;;;16.10;;
3036;SDS011;1528;52.550;13.408;2024-01-07T15:54:36;16.57;;;15.67;;
3036;SDS011;1528;52.550;13.408;2024-01-07T15:57:22;18.13;;;17.17;;
3036;SDS011;1528;52.550;13.408;2024-01-07T16:00:08;19.47;;;18.47;;
3036;SDS011;1528;52.550;13.408;2024-01-07T16:02:55;18.10;;;17.00;;
3036;SDS011;1528;52.550;13.408;2024-01-07T16:05:42;17.37;;;16.37;;
3036;SDS011;1528;52.550;13.408;2024-01-07T16:08:27;16.93;;;15.93;;
3036;SDS011;1528;52.550;13.408;2024-01-07T16:11:13;18.17;;;17.17;;
3036;SDS011;1528;52.550;13.408;2024-01-07T16:14:01;17.27;;;16.27;;
3036;SDS011;1528;52.550;13.408;2024-01-07T16:16:46;15.60;;;14.50;;
3036;SDS011;1528;52.550;13.408;2024-01-07T16:19:33;15.57;;;14.53;;
3036;SDS011;1528;52.550;13.408;2024-01-07T16:22:19;17.13;;;15.73;;
3036;SDS011;1528;52.550;13.408;2024-01-07T16:25:05;15.07;;;14.07;;
3036;SDS011;1528;52.550;13.408;2024-01-07T16:27:51;16.33;;;15.33;;
3036;SDS011;1528;52.550;13.408;2024-01-07T16:30:37;15.93;;;15.00;;
3036;SDS011;1528;52.550;13.408;2024-01-07T16:33:23;16.40;;;15.50;;